createdAt,value
2022-12-11T00:11:50.668Z,6.60
2022-12-11T00:26:52.958Z,6.28
2022-12-11T00:41:54.920Z,6.60
2022-12-11T00:56:57.831Z,6.20
2022-12-11T01:11:59.743Z,5.78
2022-12-11T01:27:01.664Z,5.70
2022-12-11T01:42:03.660Z,5.90
2022-12-11T01:57:06.893Z,6.78
2022-12-11T05:34:05.453Z,6.88
2022-12-11T05:49:08.248Z,6.72
2022-12-11T06:04:11.411Z,6.25
2022-12-11T06:19:15.124Z,6.32
2022-12-11T06:34:17.438Z,6.68
2022-12-11T06:49:19.618Z,6.38
2022-12-11T07:04:24.845Z,6.70
2022-12-11T07:19:27.176Z,6.40
2022-12-11T07:34:29.358Z,6.90
2022-12-11T07:49:31.639Z,7.63
2022-12-11T08:04:34.073Z,6.97
2022-12-11T08:19:37.601Z,6.88
2022-12-11T08:34:40.470Z,6.40
2022-12-11T08:49:42.676Z,6.35
2022-12-11T09:04:44.853Z,6.40
2022-12-11T09:19:47.076Z,6.47
2022-12-11T09:34:51.819Z,6.35
2022-12-11T09:50:13.470Z,6.88
2022-12-11T10:05:40.061Z,6.22
2022-12-11T10:20:42.988Z,6.57
2022-12-11T10:35:55.708Z,6.57
2022-12-11T10:51:04.291Z,7.18
2022-12-11T11:06:20.182Z,6.75
2022-12-11T11:21:24.368Z,8.38
2022-12-11T11:36:27.907Z,7.78
2022-12-11T11:51:36.611Z,7.97
2022-12-11T12:06:50.580Z,7.15
2022-12-11T12:21:53.338Z,6.63
2022-12-11T12:37:14.420Z,7.85
2022-12-11T12:52:17.295Z,6.95
2022-12-11T13:07:30.568Z,6.63
2022-12-11T13:22:32.880Z,7.60
2022-12-11T13:37:43.713Z,7.28
2022-12-11T13:52:59.845Z,7.47
2022-12-11T14:08:06.533Z,7.28
2022-12-11T14:23:19.314Z,8.10
2022-12-11T14:38:46.544Z,7.80
2022-12-11T14:53:50.201Z,7.32
2022-12-11T15:08:53.969Z,6.82
2022-12-11T15:23:57.893Z,7.22
2022-12-11T15:39:00.203Z,7.65
2022-12-11T15:54:02.397Z,6.60
2022-12-11T16:09:05.284Z,7.28
2022-12-11T16:24:07.865Z,7.82
2022-12-11T16:39:12.350Z,7.57
2022-12-11T16:54:14.703Z,7.38
2022-12-11T17:09:16.935Z,7.18
2022-12-11T17:24:19.178Z,7.03
2022-12-11T17:39:21.347Z,8.23
2022-12-11T17:54:24.248Z,7.78
2022-12-11T18:09:26.408Z,7.68
2022-12-11T18:24:31.893Z,7.88
2022-12-11T18:39:34.148Z,10.43
2022-12-11T18:54:36.574Z,7.43
2022-12-11T19:09:50.262Z,9.20
2022-12-11T19:24:52.195Z,9.05
2022-12-11T19:39:54.122Z,9.73
2022-12-11T19:55:00.299Z,10.00
2022-12-11T20:10:02.283Z,9.10
2022-12-11T20:25:04.606Z,8.68
2022-12-11T20:40:07.358Z,8.82
2022-12-11T20:55:10.088Z,9.00
2022-12-11T21:10:13.390Z,8.02
2022-12-11T21:25:15.344Z,8.48
2022-12-11T21:40:17.456Z,8.07
2022-12-11T21:55:19.824Z,7.40
2022-12-11T22:10:21.798Z,8.02
2022-12-11T22:25:23.734Z,8.23
2022-12-11T22:40:26.787Z,7.57
2022-12-11T22:55:28.762Z,7.25
2022-12-11T23:10:30.728Z,8.05
2022-12-11T23:25:32.735Z,7.28
2022-12-11T23:40:34.920Z,6.95
2022-12-11T23:55:39.632Z,6.35
